createdAt,value
2023-03-26T00:01:15.783Z,11.37
2023-03-26T00:03:47.483Z,12.63
2023-03-26T00:06:16.956Z,12.07
2023-03-26T00:08:45.983Z,12.10
2023-03-26T00:11:16.199Z,15.98
2023-03-26T00:13:44.227Z,17.00
2023-03-26T00:16:14.097Z,13.98
2023-03-26T00:18:43.826Z,12.55
2023-03-26T00:21:15.481Z,12.88
2023-03-26T00:23:44.175Z,16.08
2023-03-26T00:26:11.723Z,14.20
2023-03-26T00:28:43.112Z,12.48
2023-03-26T00:31:16.139Z,15.68
2023-03-26T00:33:44.263Z,15.68
2023-03-26T00:36:17.741Z,16.08
2023-03-26T00:38:48.093Z,16.97
2023-03-26T00:41:18.133Z,17.75
2023-03-26T00:43:49.536Z,15.82
2023-03-26T00:46:18.544Z,14.57
2023-03-26T00:48:47.243Z,13.55
2023-03-26T00:51:16.637Z,13.23
2023-03-26T00:53:48.944Z,14.88
2023-03-26T00:56:17.303Z,13.90
2023-03-26T00:58:45.667Z,14.55
2023-03-26T01:01:16.159Z,15.15
2023-03-26T01:04:00.903Z,14.57
2023-03-26T01:06:36.829Z,20.02
2023-03-26T01:09:19.512Z,17.77
2023-03-26T01:11:48.807Z,17.10
2023-03-26T01:14:27.322Z,17.02
2023-03-26T01:17:02.142Z,19.70
2023-03-26T01:19:34.436Z,19.70
2023-03-26T01:22:02.066Z,18.30
2023-03-26T01:24:29.664Z,18.92
2023-03-26T01:27:02.444Z,19.67
2023-03-26T01:29:49.196Z,20.77
2023-03-26T01:32:28.226Z,19.08
2023-03-26T01:35:23.523Z,19.55
2023-03-26T01:38:29.739Z,20.70
2023-03-26T01:41:06.107Z,18.85
2023-03-26T01:43:46.398Z,18.60
2023-03-26T01:46:16.508Z,17.73
2023-03-26T01:48:46.440Z,16.77
2023-03-26T01:51:16.928Z,18.67
2023-03-26T01:53:47.177Z,21.10
2023-03-26T01:56:20.516Z,18.80
2023-03-26T02:02:13.263Z,21.63
2023-03-26T02:05:05.585Z,14.65
2023-03-26T02:07:42.160Z,33.10
2023-03-26T02:10:17.384Z,21.77
2023-03-26T02:12:45.143Z,19.58
2023-03-26T02:15:13.841Z,18.42
2023-03-26T02:17:41.788Z,15.02
2023-03-26T02:20:14.759Z,20.85
2023-03-26T02:22:46.163Z,18.77
2023-03-26T02:25:16.662Z,16.85
2023-03-26T02:27:45.193Z,18.55
2023-03-26T02:30:20.930Z,22.38
2023-03-26T02:32:52.979Z,17.75
2023-03-26T02:35:22.582Z,15.50
2023-03-26T02:37:51.274Z,19.80
2023-03-26T02:40:21.447Z,22.30
2023-03-26T02:42:49.403Z,22.35
2023-03-26T02:45:17.323Z,16.88
2023-03-26T02:47:46.426Z,17.57
2023-03-26T02:50:14.073Z,16.77
2023-03-26T02:52:42.608Z,30.67
2023-03-26T02:55:10.000Z,15.48
2023-03-26T02:57:39.351Z,19.88
2023-03-26T03:00:55.389Z,15.13
2023-03-26T03:03:24.823Z,18.27
2023-03-26T03:05:53.292Z,19.13
2023-03-26T03:08:22.930Z,14.43
2023-03-26T03:11:01.210Z,17.73
2023-03-26T03:13:29.126Z,15.73
2023-03-26T03:15:57.635Z,17.38
2023-03-26T03:18:25.721Z,22.38
2023-03-26T03:20:54.349Z,30.80
2023-03-26T03:23:22.413Z,18.83
2023-03-26T03:25:51.280Z,16.40
2023-03-26T03:28:19.544Z,18.27
2023-03-26T03:30:47.831Z,18.10
2023-03-26T03:33:15.238Z,18.85
2023-03-26T03:35:43.145Z,19.13
2023-03-26T03:38:11.553Z,15.87
2023-03-26T03:40:39.409Z,13.90
2023-03-26T03:43:06.971Z,20.30
2023-03-26T03:45:34.563Z,16.70
2023-03-26T03:48:02.782Z,21.33
2023-03-26T03:50:30.463Z,22.83
2023-03-26T03:52:59.526Z,21.15
2023-03-26T03:55:28.501Z,17.83
2023-03-26T03:57:57.174Z,20.23
2023-03-26T04:00:24.964Z,19.70
2023-03-26T04:02:54.839Z,16.77
2023-03-26T04:05:23.765Z,20.20
2023-03-26T04:07:51.470Z,21.00
2023-03-26T04:10:18.918Z,18.08
2023-03-26T04:12:46.329Z,23.40
2023-03-26T04:15:14.368Z,15.77
2023-03-26T04:17:47.543Z,17.27
2023-03-26T04:20:19.548Z,18.60
2023-03-26T04:22:47.061Z,23.50
2023-03-26T04:25:15.880Z,18.42
2023-03-26T04:27:45.003Z,23.37
2023-03-26T04:30:17.506Z,16.83
2023-03-26T04:32:45.657Z,19.58
2023-03-26T04:35:17.658Z,16.20
2023-03-26T04:37:46.335Z,12.63
2023-03-26T04:40:21.187Z,16.83
2023-03-26T04:42:49.055Z,14.15
2023-03-26T04:45:23.106Z,15.70
2023-03-26T04:47:52.193Z,28.30
2023-03-26T04:50:19.725Z,18.58
2023-03-26T04:52:47.551Z,23.50
2023-03-26T04:58:06.523Z,16.42
2023-03-26T05:00:34.160Z,14.70
2023-03-26T05:03:04.013Z,12.25
2023-03-26T05:05:31.856Z,14.03
2023-03-26T05:07:59.622Z,17.35
2023-03-26T05:10:27.443Z,12.80
2023-03-26T05:12:54.754Z,27.75
2023-03-26T05:15:22.646Z,23.85
2023-03-26T05:17:50.337Z,12.30
2023-03-26T05:20:30.792Z,12.23
2023-03-26T05:22:58.252Z,15.77
2023-03-26T05:25:26.535Z,11.60
2023-03-26T05:27:54.081Z,15.07
2023-03-26T05:30:22.999Z,14.00
2023-03-26T05:32:51.375Z,12.90
2023-03-26T05:35:19.842Z,12.35
2023-03-26T05:37:50.502Z,16.77
2023-03-26T05:40:18.342Z,15.05
2023-03-26T05:42:46.508Z,14.90
2023-03-26T05:45:15.810Z,12.13
2023-03-26T05:47:44.014Z,13.43
2023-03-26T05:52:50.034Z,18.90
2023-03-26T05:55:19.797Z,21.30
2023-03-26T06:00:25.781Z,12.95
2023-03-26T06:03:01.126Z,13.63
2023-03-26T06:05:38.245Z,17.00
2023-03-26T06:08:07.254Z,12.33
2023-03-26T06:10:39.026Z,14.02
2023-03-26T06:13:07.268Z,11.60
2023-03-26T06:15:35.685Z,12.48
2023-03-26T06:18:05.261Z,8.43
2023-03-26T06:20:38.242Z,8.83
2023-03-26T06:23:07.280Z,9.63
2023-03-26T06:25:35.616Z,8.98
2023-03-26T06:28:03.822Z,10.63
2023-03-26T06:30:33.876Z,8.35
2023-03-26T06:33:03.021Z,8.50
2023-03-26T06:35:43.714Z,7.88
2023-03-26T06:38:43.322Z,16.65
2023-03-26T06:41:12.331Z,11.30
2023-03-26T06:43:39.845Z,9.68
2023-03-26T06:46:07.337Z,9.87
2023-03-26T06:48:35.733Z,10.60
2023-03-26T06:51:04.150Z,8.90
2023-03-26T06:53:31.666Z,13.48
2023-03-26T06:55:59.114Z,9.40
2023-03-26T06:58:27.356Z,6.93
2023-03-26T07:00:56.060Z,13.68
2023-03-26T07:03:24.206Z,12.05
2023-03-26T07:05:51.608Z,7.90
2023-03-26T07:08:19.016Z,11.20
2023-03-26T07:10:48.835Z,8.60
2023-03-26T07:13:18.799Z,15.73
2023-03-26T07:15:52.004Z,14.18
2023-03-26T07:18:19.469Z,12.48
2023-03-26T07:20:47.336Z,12.40
2023-03-26T07:23:21.232Z,12.30
2023-03-26T07:25:54.523Z,9.75
2023-03-26T07:29:04.701Z,9.70
2023-03-26T07:35:32.894Z,8.35
2023-03-26T07:38:18.819Z,12.47
2023-03-26T07:40:46.449Z,9.40
2023-03-26T07:43:45.387Z,6.95
2023-03-26T07:46:14.469Z,8.60
2023-03-26T07:48:44.354Z,10.35
2023-03-26T07:51:12.975Z,8.17
2023-03-26T07:53:40.675Z,11.77
2023-03-26T07:56:12.670Z,7.82
2023-03-26T07:58:46.682Z,6.63
2023-03-26T08:01:43.895Z,8.73
2023-03-26T08:04:28.379Z,16.23
2023-03-26T08:07:11.913Z,8.45
2023-03-26T08:09:57.001Z,7.25
2023-03-26T08:12:50.665Z,15.27
2023-03-26T08:16:11.225Z,7.75
2023-03-26T08:19:06.905Z,8.53
2023-03-26T08:21:56.579Z,16.92
2023-03-26T08:24:24.064Z,9.80
2023-03-26T08:27:22.796Z,14.13
2023-03-26T08:30:18.226Z,9.35
2023-03-26T08:33:23.188Z,9.70
2023-03-26T08:35:52.458Z,11.05
2023-03-26T08:38:21.284Z,11.82
2023-03-26T08:41:15.480Z,10.95
2023-03-26T08:44:02.827Z,12.75
2023-03-26T08:46:49.119Z,16.60
2023-03-26T08:49:44.860Z,14.40
2023-03-26T08:52:19.946Z,13.93
2023-03-26T08:55:23.112Z,11.50
2023-03-26T08:58:35.314Z,13.60
2023-03-26T09:01:21.618Z,16.50
2023-03-26T09:10:39.020Z,36.78
2023-03-26T09:13:28.564Z,30.23
2023-03-26T09:16:45.017Z,32.87
2023-03-26T09:23:22.159Z,23.42
2023-03-26T09:29:26.823Z,21.65
2023-03-26T09:36:09.285Z,26.63
2023-03-26T09:38:50.549Z,43.33
2023-03-26T09:41:53.576Z,24.75
2023-03-26T09:47:53.752Z,22.97
2023-03-26T09:50:32.904Z,18.27
2023-03-26T09:53:14.002Z,23.77
2023-03-26T09:55:49.648Z,66.47
2023-03-26T10:01:35.657Z,40.10
2023-03-26T10:04:03.127Z,21.98
2023-03-26T10:06:57.477Z,39.25
2023-03-26T10:09:34.579Z,25.15
2023-03-26T10:12:22.333Z,16.98
2023-03-26T10:15:03.204Z,22.47
2023-03-26T10:18:28.024Z,37.92
2023-03-26T10:21:07.704Z,14.63
2023-03-26T10:24:08.980Z,19.95
2023-03-26T10:27:09.100Z,26.55
2023-03-26T10:30:24.304Z,16.63
2023-03-26T10:33:06.318Z,20.25
2023-03-26T10:36:11.325Z,23.23
2023-03-26T10:39:11.699Z,21.23
2023-03-26T10:42:30.248Z,28.15
2023-03-26T10:45:19.390Z,21.97
2023-03-26T10:48:28.254Z,21.15
2023-03-26T10:51:20.933Z,24.73
2023-03-26T10:54:32.158Z,19.98
2023-03-26T10:57:03.392Z,27.15
2023-03-26T10:59:36.172Z,26.53
2023-03-26T11:02:29.678Z,27.98
2023-03-26T11:05:21.765Z,27.10
2023-03-26T11:08:14.922Z,27.33
2023-03-26T11:11:01.906Z,22.05
2023-03-26T11:13:57.182Z,25.60
2023-03-26T11:16:27.787Z,28.45
2023-03-26T11:19:08.055Z,26.60
2023-03-26T11:21:50.164Z,23.95
2023-03-26T11:24:44.040Z,26.55
2023-03-26T11:30:49.292Z,27.05
2023-03-26T11:33:32.792Z,23.65
2023-03-26T11:36:09.429Z,25.92
2023-03-26T11:38:41.178Z,23.90
2023-03-26T11:41:23.419Z,28.60
2023-03-26T11:43:57.032Z,24.52
2023-03-26T11:47:02.270Z,25.98
2023-03-26T11:49:30.326Z,20.52
2023-03-26T11:52:00.099Z,24.52
2023-03-26T11:54:28.333Z,25.17
2023-03-26T11:57:05.594Z,22.50
2023-03-26T12:00:18.505Z,23.00
2023-03-26T12:02:47.856Z,23.55
2023-03-26T12:05:26.948Z,22.13
2023-03-26T12:08:00.314Z,22.27
2023-03-26T12:10:43.516Z,23.77
2023-03-26T12:13:36.910Z,22.03
2023-03-26T12:16:11.757Z,22.45
2023-03-26T12:18:41.570Z,26.00
2023-03-26T12:21:11.243Z,23.95
2023-03-26T12:23:42.916Z,24.17
2023-03-26T12:26:37.593Z,23.13
2023-03-26T12:29:14.811Z,19.75
2023-03-26T12:31:54.484Z,25.52
2023-03-26T12:34:31.475Z,22.90
2023-03-26T12:37:07.776Z,22.73
2023-03-26T12:40:07.852Z,20.63
2023-03-26T12:44:49.271Z,25.35
2023-03-26T12:45:32.377Z,21.33
2023-03-26T12:48:04.337Z,19.83
2023-03-26T12:50:51.728Z,22.48
2023-03-26T12:53:42.284Z,21.33
2023-03-26T12:59:07.844Z,23.10
2023-03-26T13:01:40.115Z,21.90
2023-03-26T13:04:34.468Z,22.05
2023-03-26T13:07:21.715Z,22.20
2023-03-26T13:10:29.681Z,20.77
2023-03-26T13:13:18.195Z,23.33
2023-03-26T13:15:53.165Z,26.67
2023-03-26T13:18:36.090Z,21.48
2023-03-26T13:21:29.276Z,27.17
2023-03-26T13:24:09.366Z,27.00
2023-03-26T13:27:07.648Z,24.25
2023-03-26T13:29:47.342Z,21.55
2023-03-26T13:32:48.240Z,23.00
2023-03-26T13:35:43.852Z,25.90
2023-03-26T13:38:28.253Z,23.10
2023-03-26T13:41:18.500Z,20.85
2023-03-26T13:44:23.670Z,24.17
2023-03-26T13:47:03.308Z,25.90
2023-03-26T13:49:40.907Z,23.77
2023-03-26T13:52:20.218Z,24.48
2023-03-26T13:54:55.368Z,23.63
2023-03-26T14:00:27.262Z,29.30
2023-03-26T14:03:03.838Z,24.47
2023-03-26T14:05:43.056Z,20.48
2023-03-26T14:08:26.131Z,19.88
2023-03-26T14:11:07.279Z,19.95
2023-03-26T14:13:58.568Z,25.85
2023-03-26T14:16:39.174Z,27.83
2023-03-26T14:22:57.092Z,21.38
2023-03-26T14:25:46.266Z,22.65
2023-03-26T14:28:22.624Z,21.60
2023-03-26T14:31:19.725Z,22.70
2023-03-26T14:33:58.234Z,21.83
2023-03-26T14:37:06.328Z,22.60
2023-03-26T14:40:08.745Z,19.85
2023-03-26T14:42:54.027Z,22.67
2023-03-26T14:45:44.261Z,18.20
2023-03-26T14:48:54.414Z,17.95
2023-03-26T14:51:49.406Z,20.67
2023-03-26T14:54:21.114Z,19.00
2023-03-26T14:57:22.458Z,19.55
2023-03-26T15:00:24.043Z,21.30
2023-03-26T15:03:10.521Z,18.55
2023-03-26T15:06:23.795Z,21.23
2023-03-26T15:09:10.018Z,16.65
2023-03-26T15:11:52.959Z,21.10
2023-03-26T15:14:43.117Z,21.47
2023-03-26T15:17:29.384Z,23.40
2023-03-26T15:20:34.911Z,18.50
2023-03-26T15:23:39.192Z,22.88
2023-03-26T15:26:38.320Z,18.30
2023-03-26T15:29:27.428Z,26.93
2023-03-26T15:32:19.717Z,17.92
2023-03-26T15:34:48.981Z,20.13
2023-03-26T15:37:34.964Z,21.10
2023-03-26T15:40:13.384Z,20.08
2023-03-26T15:42:53.261Z,15.83
2023-03-26T15:45:32.892Z,16.38
2023-03-26T15:48:19.314Z,18.30
2023-03-26T15:50:56.320Z,17.17
2023-03-26T15:53:24.084Z,17.25
2023-03-26T15:56:33.362Z,18.37
2023-03-26T15:59:19.874Z,19.23
2023-03-26T16:02:08.052Z,20.40
2023-03-26T16:05:06.520Z,18.38
2023-03-26T16:08:10.357Z,17.20
2023-03-26T16:10:52.743Z,16.87
2023-03-26T16:13:20.486Z,15.90
2023-03-26T16:16:16.655Z,17.48
2023-03-26T16:18:47.353Z,17.48
2023-03-26T16:21:32.755Z,15.68
2023-03-26T16:24:03.707Z,14.10
2023-03-26T16:27:11.253Z,18.52
2023-03-26T16:30:00.849Z,16.35
2023-03-26T16:32:44.862Z,19.85
2023-03-26T16:35:15.520Z,18.17
2023-03-26T16:41:27.423Z,16.83
2023-03-26T16:44:25.666Z,26.80
2023-03-26T16:47:30.997Z,19.45
2023-03-26T16:53:35.111Z,13.47
2023-03-26T16:56:23.307Z,12.30
2023-03-26T16:59:00.998Z,12.52
2023-03-26T17:01:44.005Z,15.20
2023-03-26T17:04:25.715Z,15.25
2023-03-26T17:07:04.901Z,15.47
2023-03-26T17:09:43.355Z,14.85
2023-03-26T17:12:55.801Z,12.88
2023-03-26T17:15:56.008Z,12.55
2023-03-26T17:18:46.483Z,12.90
2023-03-26T17:21:46.919Z,16.87
2023-03-26T17:24:28.696Z,14.55
2023-03-26T17:27:07.217Z,14.75
2023-03-26T17:30:10.784Z,16.08
2023-03-26T17:33:06.513Z,14.32
2023-03-26T17:35:39.669Z,15.07
2023-03-26T17:38:18.110Z,16.80
2023-03-26T17:40:56.117Z,14.75
2023-03-26T17:46:43.607Z,14.07
2023-03-26T17:49:22.911Z,11.97
2023-03-26T17:52:11.018Z,14.50
2023-03-26T17:54:51.502Z,15.02
2023-03-26T17:57:31.452Z,13.48
2023-03-26T18:00:02.616Z,11.93
2023-03-26T18:08:27.838Z,12.98
2023-03-26T18:11:19.890Z,16.60
2023-03-26T18:14:00.617Z,12.20
2023-03-26T18:16:38.414Z,14.40
2023-03-26T18:19:23.752Z,11.98
2023-03-26T18:22:07.621Z,13.52
2023-03-26T18:24:41.364Z,13.98
2023-03-26T18:30:01.852Z,10.97
2023-03-26T18:32:34.204Z,13.48
2023-03-26T18:35:19.653Z,11.07
2023-03-26T18:37:53.534Z,12.10
2023-03-26T18:40:24.309Z,11.48
2023-03-26T18:43:07.729Z,13.07
2023-03-26T18:45:39.796Z,13.57
2023-03-26T18:48:21.939Z,13.93
2023-03-26T18:51:10.275Z,11.98
2023-03-26T18:53:58.202Z,13.07
2023-03-26T18:56:40.174Z,10.23
2023-03-26T18:59:28.367Z,13.93
2023-03-26T19:01:58.157Z,19.08
2023-03-26T19:04:31.797Z,12.55
2023-03-26T19:07:01.914Z,11.77
2023-03-26T19:09:37.825Z,12.60
2023-03-26T19:12:15.220Z,11.30
2023-03-26T19:15:25.522Z,14.48
2023-03-26T19:18:04.122Z,13.05
2023-03-26T19:20:38.233Z,17.42
2023-03-26T19:23:13.774Z,12.47
2023-03-26T19:25:55.426Z,11.48
2023-03-26T19:28:29.817Z,13.13
2023-03-26T19:31:08.964Z,13.00
2023-03-26T19:33:40.908Z,16.20
2023-03-26T19:36:18.196Z,13.70
2023-03-26T19:38:53.059Z,12.55
2023-03-26T19:41:28.757Z,11.45
2023-03-26T19:44:03.228Z,12.45
2023-03-26T19:46:53.618Z,12.27
2023-03-26T19:49:53.515Z,11.87
2023-03-26T19:52:27.921Z,14.68
2023-03-26T19:55:05.342Z,13.32
2023-03-26T19:57:36.680Z,12.73
2023-03-26T20:00:15.173Z,17.45
2023-03-26T20:02:49.507Z,13.70
2023-03-26T20:05:26.681Z,12.63
2023-03-26T20:07:57.444Z,15.60
2023-03-26T20:10:25.550Z,16.13
2023-03-26T20:12:53.782Z,16.30
2023-03-26T20:15:41.553Z,11.37
2023-03-26T20:18:09.087Z,13.02
2023-03-26T20:20:37.535Z,13.07
2023-03-26T20:23:13.396Z,13.75
2023-03-26T20:25:49.540Z,15.45
2023-03-26T20:28:21.460Z,12.20
2023-03-26T20:30:49.916Z,11.38
2023-03-26T20:33:27.030Z,12.40
2023-03-26T20:35:59.037Z,12.00
2023-03-26T20:38:39.038Z,11.60
2023-03-26T20:41:15.040Z,15.00
2023-03-26T20:43:43.212Z,10.60
2023-03-26T20:46:22.082Z,11.32
2023-03-26T20:48:50.643Z,12.93
2023-03-26T20:51:20.262Z,15.55
2023-03-26T20:53:48.607Z,17.20
2023-03-26T20:56:20.215Z,14.93
2023-03-26T20:59:00.416Z,16.33
2023-03-26T21:01:36.104Z,13.55
2023-03-26T21:04:07.187Z,15.55
2023-03-26T21:06:34.884Z,16.97
2023-03-26T21:09:02.888Z,13.50
2023-03-26T21:11:51.662Z,16.75
2023-03-26T21:14:41.849Z,13.45
2023-03-26T21:17:23.579Z,13.07
2023-03-26T21:19:52.360Z,16.90
2023-03-26T21:23:00.776Z,11.30
2023-03-26T21:25:47.223Z,14.80
2023-03-26T21:28:32.278Z,13.35
2023-03-26T21:31:15.795Z,15.27
2023-03-26T21:33:43.291Z,11.93
2023-03-26T21:36:12.211Z,13.60
2023-03-26T21:38:40.489Z,14.23
2023-03-26T21:41:08.505Z,16.25
2023-03-26T21:43:35.880Z,15.15
2023-03-26T21:46:04.128Z,13.33
2023-03-26T21:48:31.908Z,15.27
2023-03-26T21:51:44.622Z,19.08
2023-03-26T21:54:32.729Z,12.95
2023-03-26T21:57:24.191Z,15.90
2023-03-26T21:59:58.670Z,12.83
2023-03-26T22:02:33.499Z,13.40
2023-03-26T22:05:14.286Z,15.65
2023-03-26T22:08:03.410Z,16.63
2023-03-26T22:10:32.334Z,16.00
2023-03-26T22:13:00.666Z,16.63
2023-03-26T22:15:31.179Z,15.60
2023-03-26T22:18:03.429Z,14.27
2023-03-26T22:20:31.320Z,13.38
2023-03-26T22:23:00.538Z,14.55
2023-03-26T22:25:28.092Z,16.80
2023-03-26T22:27:55.492Z,17.17
2023-03-26T22:30:22.809Z,13.10
2023-03-26T22:32:50.589Z,14.75
2023-03-26T22:35:18.242Z,16.60
2023-03-26T22:37:46.405Z,15.07
2023-03-26T22:40:13.967Z,12.32
2023-03-26T22:42:42.259Z,17.05
2023-03-26T22:45:10.246Z,13.70
2023-03-26T22:47:38.520Z,14.32
2023-03-26T22:50:10.065Z,16.47
2023-03-26T22:52:37.956Z,11.52
2023-03-26T22:55:08.737Z,17.95
2023-03-26T22:57:36.594Z,12.05
2023-03-26T23:00:21.212Z,14.68
2023-03-26T23:02:48.914Z,15.43
2023-03-26T23:05:19.671Z,15.20
2023-03-26T23:07:49.058Z,21.67
2023-03-26T23:10:16.778Z,17.70
2023-03-26T23:12:44.344Z,17.80
2023-03-26T23:15:12.249Z,16.40
2023-03-26T23:17:39.665Z,20.30
2023-03-26T23:20:15.611Z,17.58
2023-03-26T23:22:43.481Z,17.60
2023-03-26T23:25:12.508Z,17.42
2023-03-26T23:27:41.775Z,18.17
2023-03-26T23:30:11.054Z,19.42
2023-03-26T23:32:39.352Z,17.08
2023-03-26T23:35:07.527Z,18.67
2023-03-26T23:37:35.419Z,20.70
2023-03-26T23:40:07.818Z,17.93
2023-03-26T23:42:35.239Z,23.88
2023-03-26T23:45:02.798Z,22.30
2023-03-26T23:47:35.058Z,24.15
2023-03-26T23:50:03.151Z,23.35
2023-03-26T23:52:31.275Z,20.47
2023-03-26T23:55:01.768Z,17.80
2023-03-26T23:57:29.446Z,19.75
2023-03-26T23:59:56.961Z,25.70
